createdAt,value
2018-06-18T00:01:10.226Z,99848.00
2018-06-18T00:03:14.622Z,99846.00
2018-06-18T00:05:19.023Z,99844.00
2018-06-18T00:07:23.434Z,99853.00
2018-06-18T00:09:27.843Z,99848.00
2018-06-18T00:11:32.255Z,99853.00
2018-06-18T00:13:36.835Z,99860.00
2018-06-18T00:15:41.237Z,99860.00
2018-06-18T00:17:45.679Z,99850.00
2018-06-18T00:19:50.350Z,99853.00
2018-06-18T00:21:54.868Z,99867.00
2018-06-18T00:23:59.265Z,99866.00
2018-06-18T00:26:03.650Z,99872.00
2018-06-18T00:28:08.367Z,99864.00
2018-06-18T00:30:12.937Z,99868.00
2018-06-18T00:32:17.359Z,99870.00
2018-06-18T00:34:21.749Z,99863.00
2018-06-18T00:36:26.158Z,99864.00
2018-06-18T00:38:30.579Z,99844.00
2018-06-18T00:40:34.947Z,99851.00
2018-06-18T00:42:39.356Z,99846.00
2018-06-18T00:44:43.749Z,99856.00
2018-06-18T00:46:48.138Z,99847.00
2018-06-18T00:48:52.571Z,99843.00
2018-06-18T00:50:57.039Z,99849.00
2018-06-18T00:53:01.441Z,99848.00
2018-06-18T00:55:05.878Z,99841.00
2018-06-18T00:57:11.067Z,99845.00
2018-06-18T00:59:15.498Z,99848.00
2018-06-18T01:01:23.390Z,99844.00
2018-06-18T01:03:29.938Z,99840.00
2018-06-18T01:05:37.137Z,99835.00
2018-06-18T01:07:43.825Z,99828.00
2018-06-18T01:09:49.517Z,99831.00
2018-06-18T01:11:57.772Z,99826.00
2018-06-18T01:14:04.193Z,99826.00
2018-06-18T01:16:11.445Z,99823.00
2018-06-18T01:18:18.468Z,99819.00
2018-06-18T01:20:24.090Z,99808.00
2018-06-18T01:22:33.367Z,99813.00
2018-06-18T01:24:47.641Z,99826.00
2018-06-18T01:26:55.464Z,99833.00
2018-06-18T01:29:02.154Z,99823.00
2018-06-18T01:31:08.582Z,99819.00
2018-06-18T01:33:15.373Z,99819.00
2018-06-18T01:35:20.890Z,99824.00
2018-06-18T01:37:29.626Z,99834.00
2018-06-18T01:39:36.867Z,99836.00
2018-06-18T01:41:42.466Z,99841.00
2018-06-18T01:43:51.488Z,99837.00
2018-06-18T01:45:59.449Z,99842.00
2018-06-18T01:48:06.441Z,99834.00
2018-06-18T01:50:11.866Z,99832.00
2018-06-18T01:52:23.210Z,99829.00
2018-06-18T01:54:30.558Z,99835.00
2018-06-18T01:56:36.653Z,99845.00
2018-06-18T01:58:44.866Z,99839.00
2018-06-18T02:00:53.763Z,99834.00
2018-06-18T02:03:02.351Z,99845.00
2018-06-18T02:05:09.686Z,99836.00
2018-06-18T02:07:17.772Z,99838.00
2018-06-18T02:09:25.347Z,99838.00
2018-06-18T02:11:31.753Z,99836.00
2018-06-18T02:13:37.287Z,99842.00
2018-06-18T02:15:46.244Z,99824.00
2018-06-18T02:17:54.715Z,99834.00
2018-06-18T02:20:02.195Z,99836.00
2018-06-18T02:22:06.755Z,99836.00
2018-06-18T02:24:11.580Z,99836.00
2018-06-18T02:26:16.000Z,99838.00
2018-06-18T02:28:25.719Z,99838.00
2018-06-18T02:31:35.282Z,99836.00
2018-06-18T02:33:44.775Z,99827.00
2018-06-18T02:35:54.350Z,99819.00
2018-06-18T02:38:03.957Z,99831.00
2018-06-18T02:40:13.655Z,99828.00
2018-06-18T02:42:18.106Z,99831.00
2018-06-18T02:44:22.558Z,99831.00
2018-06-18T02:46:26.971Z,99837.00
2018-06-18T02:48:31.870Z,99829.00
2018-06-18T02:50:36.291Z,99833.00
2018-06-18T02:52:40.750Z,99829.00
2018-06-18T02:54:45.215Z,99831.00
2018-06-18T02:56:58.150Z,99831.00
2018-06-18T02:59:02.638Z,99835.00
2018-06-18T03:01:07.686Z,99839.00
2018-06-18T03:03:13.636Z,99854.00
2018-06-18T03:05:19.340Z,99840.00
2018-06-18T03:07:23.779Z,99846.00
2018-06-18T03:09:28.316Z,99847.00
2018-06-18T03:11:32.734Z,99852.00
2018-06-18T03:13:37.200Z,99851.00
2018-06-18T03:15:45.252Z,99839.00
2018-06-18T03:17:53.608Z,99845.00
2018-06-18T03:20:05.270Z,99851.00
2018-06-18T03:22:17.510Z,99855.00
2018-06-18T03:24:28.422Z,99853.00
2018-06-18T03:26:38.031Z,99854.00
2018-06-18T03:28:47.386Z,99859.00
2018-06-18T03:30:52.066Z,99855.00
2018-06-18T03:32:56.454Z,99858.00
2018-06-18T03:35:00.917Z,99867.00
2018-06-18T03:37:06.462Z,99862.00
2018-06-18T03:39:13.883Z,99860.00
2018-06-18T03:41:18.261Z,99862.00
2018-06-18T03:43:24.102Z,99860.00
2018-06-18T03:45:34.243Z,99853.00
2018-06-18T03:47:39.326Z,99857.00
2018-06-18T03:49:43.762Z,99851.00
2018-06-18T03:51:48.186Z,99854.00
2018-06-18T03:53:52.618Z,99854.00
2018-06-18T03:56:01.199Z,99859.00
2018-06-18T03:58:09.130Z,99855.00
2018-06-18T04:00:13.564Z,99849.00
2018-06-18T04:02:30.806Z,99855.00
2018-06-18T04:04:52.788Z,99856.00
2018-06-18T04:07:04.611Z,99848.00
2018-06-18T04:09:18.110Z,99849.00
2018-06-18T04:11:29.838Z,99835.00
2018-06-18T04:13:36.434Z,99843.00
2018-06-18T04:15:43.123Z,99829.00
2018-06-18T04:17:50.703Z,99840.00
2018-06-18T04:19:58.639Z,99845.00
2018-06-18T04:22:03.667Z,99847.00
2018-06-18T04:24:08.056Z,99848.00
2018-06-18T04:26:12.810Z,99844.00
2018-06-18T04:28:17.210Z,99846.00
2018-06-18T04:30:21.652Z,99844.00
2018-06-18T04:32:27.022Z,99844.00
2018-06-18T04:34:46.121Z,99842.00
2018-06-18T04:36:50.514Z,99842.00
2018-06-18T04:38:54.942Z,99847.00
2018-06-18T04:41:00.028Z,99842.00
2018-06-18T04:43:09.611Z,99833.00
2018-06-18T04:45:19.624Z,99839.00
2018-06-18T04:47:29.439Z,99836.00
2018-06-18T04:49:39.219Z,99848.00
2018-06-18T04:51:43.703Z,99851.00
2018-06-18T04:53:48.184Z,99848.00
2018-06-18T04:55:53.043Z,99842.00
2018-06-18T04:57:57.485Z,99840.00
2018-06-18T05:00:22.147Z,99840.00
2018-06-18T05:02:26.618Z,99839.00
2018-06-18T05:04:31.001Z,99846.00
2018-06-18T05:06:35.468Z,99841.00
2018-06-18T05:09:06.781Z,99855.00
2018-06-18T05:11:11.242Z,99833.00
2018-06-18T05:13:15.690Z,99834.00
2018-06-18T05:15:23.027Z,99837.00
2018-06-18T05:17:27.448Z,99847.00
2018-06-18T05:19:32.003Z,99844.00
2018-06-18T05:21:36.500Z,99844.00
2018-06-18T05:23:40.937Z,99839.00
2018-06-18T05:25:50.601Z,99843.00
2018-06-18T05:27:55.048Z,99853.00
2018-06-18T05:30:06.123Z,99848.00
2018-06-18T05:32:10.547Z,99854.00
2018-06-18T05:34:18.866Z,99859.00
2018-06-18T05:36:23.410Z,99858.00
2018-06-18T05:38:31.567Z,99856.00
2018-06-18T05:40:36.039Z,99862.00
2018-06-18T05:42:40.500Z,99860.00
2018-06-18T05:44:44.953Z,99863.00
2018-06-18T05:46:49.745Z,99873.00
2018-06-18T05:48:55.611Z,99866.00
2018-06-18T05:51:00.099Z,99861.00
2018-06-18T05:53:04.452Z,99873.00
2018-06-18T05:55:08.855Z,99866.00
2018-06-18T05:57:13.335Z,99859.00
2018-06-18T05:59:17.719Z,99848.00
2018-06-18T06:01:22.172Z,99854.00
2018-06-18T06:03:26.654Z,99851.00
2018-06-18T06:05:31.139Z,99856.00
2018-06-18T06:07:35.528Z,99851.00
2018-06-18T06:09:40.048Z,99854.00
2018-06-18T06:11:44.526Z,99853.00
2018-06-18T06:13:49.238Z,99848.00
2018-06-18T06:15:53.667Z,99852.00
2018-06-18T06:17:58.085Z,99851.00
2018-06-18T06:20:02.516Z,99859.00
2018-06-18T06:22:07.690Z,99855.00
2018-06-18T06:24:12.155Z,99858.00
2018-06-18T06:26:16.746Z,99847.00
2018-06-18T06:28:21.004Z,99859.00
2018-06-18T06:30:25.210Z,99860.00
2018-06-18T06:32:30.075Z,99854.00
2018-06-18T06:34:35.245Z,99855.00
2018-06-18T06:36:39.715Z,99858.00
2018-06-18T06:38:44.174Z,99864.00
2018-06-18T06:40:48.758Z,99862.00
2018-06-18T06:42:53.248Z,99861.00
2018-06-18T06:44:58.319Z,99861.00
2018-06-18T06:47:02.497Z,99864.00
2018-06-18T06:49:07.015Z,99868.00
2018-06-18T06:51:11.457Z,99875.00
2018-06-18T06:53:16.023Z,99875.00
2018-06-18T06:55:20.718Z,99862.00
2018-06-18T06:57:25.166Z,99869.00
2018-06-18T06:59:29.659Z,99862.00
2018-06-18T07:01:34.099Z,99876.00
2018-06-18T07:03:38.638Z,99856.00
2018-06-18T07:05:43.113Z,99870.00
2018-06-18T07:07:47.679Z,99858.00
2018-06-18T07:09:52.256Z,99882.00
2018-06-18T07:11:56.775Z,99882.00
2018-06-18T07:14:01.225Z,99882.00
2018-06-18T07:16:05.863Z,99876.00
2018-06-18T07:18:10.334Z,99877.00
2018-06-18T07:20:14.828Z,99892.00
2018-06-18T07:22:19.382Z,99886.00
2018-06-18T07:24:23.801Z,99890.00
2018-06-18T07:26:28.251Z,99890.00
2018-06-18T07:28:32.718Z,99895.00
2018-06-18T07:30:37.166Z,99898.00
2018-06-18T07:32:41.640Z,99906.00
2018-06-18T07:34:46.098Z,99891.00
2018-06-18T07:36:50.553Z,99901.00
2018-06-18T07:38:55.002Z,99897.00
2018-06-18T07:40:59.645Z,99899.00
2018-06-18T07:43:04.103Z,99894.00
2018-06-18T07:45:08.555Z,99893.00
2018-06-18T07:47:13.047Z,99898.00
2018-06-18T07:49:17.452Z,99894.00
2018-06-18T07:51:21.896Z,99900.00
2018-06-18T07:53:26.358Z,99903.00
2018-06-18T07:55:30.815Z,99900.00
2018-06-18T07:57:35.299Z,99897.00
2018-06-18T07:59:39.767Z,99901.00
2018-06-18T08:01:44.209Z,99907.00
2018-06-18T08:03:54.299Z,99906.00
2018-06-18T08:05:58.731Z,99897.00
2018-06-18T08:08:03.209Z,99894.00
2018-06-18T08:10:07.663Z,99891.00
2018-06-18T08:12:12.139Z,99890.00
2018-06-18T08:14:17.221Z,99887.00
2018-06-18T08:16:21.780Z,99888.00
2018-06-18T08:18:26.216Z,99895.00
2018-06-18T08:20:30.665Z,99885.00
2018-06-18T08:22:35.174Z,99887.00
2018-06-18T08:24:39.434Z,99891.00
2018-06-18T08:26:44.006Z,99897.00
2018-06-18T08:28:48.458Z,99904.00
2018-06-18T08:30:52.940Z,99895.00
2018-06-18T08:32:57.455Z,99901.00
2018-06-18T08:35:02.632Z,99908.00
2018-06-18T08:37:07.131Z,99901.00
2018-06-18T08:39:12.339Z,99914.00
2018-06-18T08:41:16.959Z,99916.00
2018-06-18T08:43:22.000Z,99908.00
2018-06-18T08:45:26.432Z,99911.00
2018-06-18T08:47:30.939Z,99907.00
2018-06-18T08:49:40.587Z,99916.00
2018-06-18T08:51:50.142Z,99923.00
2018-06-18T08:53:59.960Z,99930.00
2018-06-18T08:56:10.899Z,99917.00
2018-06-18T08:58:20.746Z,99912.00
2018-06-18T09:00:30.223Z,99907.00
2018-06-18T09:02:34.760Z,99910.00
2018-06-18T09:04:49.284Z,99896.00
2018-06-18T09:06:57.830Z,99898.00
2018-06-18T09:09:02.336Z,99898.00
2018-06-18T09:11:06.795Z,99906.00
2018-06-18T09:13:11.204Z,99898.00
2018-06-18T09:15:15.628Z,99895.00
2018-06-18T09:17:20.057Z,99905.00
2018-06-18T09:19:24.608Z,99897.00
2018-06-18T09:21:33.219Z,99910.00
2018-06-18T09:23:37.892Z,99913.00
2018-06-18T09:25:46.639Z,99918.00
2018-06-18T09:27:51.088Z,99920.00
2018-06-18T09:30:00.669Z,99907.00
2018-06-18T09:32:09.316Z,99911.00
2018-06-18T09:34:13.678Z,99912.00
2018-06-18T09:36:18.450Z,99893.00
2018-06-18T09:38:23.386Z,99896.00
2018-06-18T09:40:27.866Z,99891.00
2018-06-18T09:42:32.647Z,99892.00
2018-06-18T09:44:37.137Z,99890.00
2018-06-18T09:46:42.516Z,99880.00
2018-06-18T09:48:55.260Z,99891.00
2018-06-18T09:51:07.919Z,99896.00
2018-06-18T09:53:20.366Z,99883.00
2018-06-18T09:55:32.926Z,99882.00
2018-06-18T09:57:49.367Z,99882.00
2018-06-18T10:01:01.368Z,99877.00
2018-06-18T10:03:05.867Z,99865.00
2018-06-18T10:05:10.466Z,99867.00
2018-06-18T10:07:14.870Z,99871.00
2018-06-18T10:09:19.387Z,99871.00
2018-06-18T10:11:23.821Z,99884.00
2018-06-18T10:13:28.345Z,99875.00
2018-06-18T10:15:32.593Z,99887.00
2018-06-18T10:17:37.041Z,99888.00
2018-06-18T10:19:41.802Z,99883.00
2018-06-18T10:21:46.308Z,99892.00
2018-06-18T10:23:51.640Z,99889.00
2018-06-18T10:25:56.061Z,99912.00
2018-06-18T10:28:00.838Z,99901.00
2018-06-18T10:30:05.451Z,99904.00
2018-06-18T10:32:15.055Z,99904.00
2018-06-18T10:34:24.968Z,99899.00
2018-06-18T10:36:34.707Z,99911.00
2018-06-18T10:38:44.326Z,99901.00
2018-06-18T10:40:54.310Z,99899.00
2018-06-18T10:43:03.954Z,99906.00
2018-06-18T10:45:08.383Z,99908.00
2018-06-18T10:47:12.817Z,99900.00
2018-06-18T10:49:16.955Z,99895.00
2018-06-18T10:51:21.399Z,99899.00
2018-06-18T10:53:25.846Z,99901.00
2018-06-18T10:55:30.858Z,99896.00
2018-06-18T10:57:36.054Z,99902.00
2018-06-18T10:59:40.834Z,99907.00
2018-06-18T11:01:46.211Z,99905.00
2018-06-18T11:03:52.083Z,99910.00
2018-06-18T11:06:01.858Z,99909.00
2018-06-18T11:08:08.027Z,99917.00
2018-06-18T11:10:13.080Z,99916.00
2018-06-18T11:12:17.527Z,99913.00
2018-06-18T11:14:22.995Z,99907.00
2018-06-18T11:16:27.176Z,99914.00
2018-06-18T11:18:37.657Z,99918.00
2018-06-18T11:20:47.277Z,99921.00
2018-06-18T11:22:57.697Z,99915.00
2018-06-18T11:25:07.276Z,99928.00
2018-06-18T11:27:12.826Z,99932.00
2018-06-18T11:29:17.482Z,99917.00
2018-06-18T11:31:22.017Z,99920.00
2018-06-18T11:33:26.458Z,99921.00
2018-06-18T11:35:31.130Z,99926.00
2018-06-18T11:37:35.580Z,99915.00
2018-06-18T11:39:40.107Z,99922.00
2018-06-18T11:41:44.558Z,99913.00
2018-06-18T11:43:49.189Z,99915.00
2018-06-18T11:45:53.669Z,99919.00
2018-06-18T11:48:17.025Z,99904.00
2018-06-18T11:50:21.460Z,99915.00
2018-06-18T11:52:27.406Z,99907.00
2018-06-18T11:54:31.859Z,99912.00
2018-06-18T11:56:36.652Z,99908.00
2018-06-18T11:58:46.731Z,99913.00
2018-06-18T12:00:56.586Z,99908.00
2018-06-18T12:03:07.111Z,99918.00
2018-06-18T12:05:18.216Z,99906.00
2018-06-18T12:07:29.995Z,99911.00
2018-06-18T12:09:39.631Z,99915.00
2018-06-18T12:11:48.198Z,99923.00
2018-06-18T12:13:54.071Z,99912.00
2018-06-18T12:15:58.586Z,99923.00
2018-06-18T12:18:03.024Z,99931.00
2018-06-18T12:20:07.578Z,99923.00
2018-06-18T12:22:12.632Z,99925.00
2018-06-18T12:24:19.982Z,99916.00
2018-06-18T12:26:25.154Z,99928.00
2018-06-18T12:28:30.543Z,99929.00
2018-06-18T12:30:36.049Z,99933.00
2018-06-18T12:32:40.815Z,99923.00
2018-06-18T12:34:45.387Z,99916.00
2018-06-18T12:36:50.282Z,99911.00
2018-06-18T12:38:54.718Z,99916.00
2018-06-18T12:40:59.361Z,99914.00
2018-06-18T12:43:03.792Z,99898.00
2018-06-18T12:45:14.768Z,99905.00
2018-06-18T12:47:25.945Z,99909.00
2018-06-18T12:49:35.759Z,99914.00
2018-06-18T12:51:45.596Z,99910.00
2018-06-18T12:53:55.491Z,99909.00
2018-06-18T12:56:05.399Z,99907.00
2018-06-18T12:58:09.928Z,99915.00
2018-06-18T13:00:15.075Z,99917.00
2018-06-18T13:02:27.165Z,99904.00
2018-06-18T13:04:35.416Z,99905.00
2018-06-18T13:06:40.605Z,99905.00
2018-06-18T13:08:45.518Z,99920.00
2018-06-18T13:10:50.090Z,99917.00
2018-06-18T13:12:54.629Z,99926.00
2018-06-18T13:14:59.453Z,99934.00
2018-06-18T13:17:09.060Z,99945.00
2018-06-18T13:19:13.467Z,99937.00
2018-06-18T13:21:18.843Z,99949.00
2018-06-18T13:23:23.573Z,99957.00
2018-06-18T13:25:28.530Z,99947.00
2018-06-18T13:27:38.934Z,99961.00
2018-06-18T13:29:43.786Z,99955.00
2018-06-18T13:31:50.482Z,99946.00
2018-06-18T13:33:55.163Z,99955.00
2018-06-18T13:35:59.948Z,99952.00
2018-06-18T13:38:10.115Z,99946.00
2018-06-18T13:40:21.169Z,99957.00
2018-06-18T13:42:31.122Z,99946.00
2018-06-18T13:44:40.876Z,99954.00
2018-06-18T13:46:50.760Z,99967.00
2018-06-18T13:48:57.665Z,99958.00
2018-06-18T13:51:02.492Z,99957.00
2018-06-18T13:53:08.565Z,99963.00
2018-06-18T13:55:13.547Z,99972.00
2018-06-18T13:57:18.074Z,99963.00
2018-06-18T13:59:22.529Z,99964.00
2018-06-18T14:01:28.611Z,99958.00
2018-06-18T14:03:33.299Z,99962.00
2018-06-18T14:05:38.364Z,99961.00
2018-06-18T14:07:44.430Z,99972.00
2018-06-18T14:09:49.387Z,99972.00
2018-06-18T14:11:54.131Z,99965.00
2018-06-18T14:14:00.151Z,99969.00
2018-06-18T14:16:05.423Z,99968.00
2018-06-18T14:18:11.712Z,99970.00
2018-06-18T14:20:23.879Z,99968.00
2018-06-18T14:22:29.152Z,99975.00
2018-06-18T14:24:33.930Z,99968.00
2018-06-18T14:26:38.742Z,99970.00
2018-06-18T14:28:44.011Z,99968.00
2018-06-18T14:30:53.739Z,99965.00
2018-06-18T14:33:03.540Z,99959.00
2018-06-18T14:35:14.074Z,99961.00
2018-06-18T14:37:23.983Z,99953.00
2018-06-18T14:39:33.707Z,99945.00
2018-06-18T14:41:38.271Z,99950.00
2018-06-18T14:43:42.982Z,99951.00
2018-06-18T14:45:47.532Z,99950.00
2018-06-18T14:47:51.927Z,99946.00
2018-06-18T14:49:56.407Z,99943.00
2018-06-18T14:52:00.863Z,99952.00
2018-06-18T14:54:05.369Z,99940.00
2018-06-18T14:56:16.982Z,99956.00
2018-06-18T14:58:21.463Z,99951.00
2018-06-18T15:00:29.540Z,99950.00
2018-06-18T15:02:33.995Z,99949.00
2018-06-18T15:04:38.539Z,99941.00
2018-06-18T15:06:42.962Z,99947.00
2018-06-18T15:08:48.578Z,99943.00
2018-06-18T15:10:55.088Z,99943.00
2018-06-18T15:12:59.969Z,99939.00
2018-06-18T15:15:10.217Z,99939.00
2018-06-18T15:17:14.680Z,99936.00
2018-06-18T15:19:19.298Z,99937.00
2018-06-18T15:21:23.718Z,99934.00
2018-06-18T15:23:28.208Z,99934.00
2018-06-18T15:25:38.423Z,99930.00
2018-06-18T15:27:43.510Z,99921.00
2018-06-18T15:29:49.354Z,99925.00
2018-06-18T15:31:54.032Z,99915.00
2018-06-18T15:33:59.324Z,99909.00
2018-06-18T15:36:04.531Z,99916.00
2018-06-18T15:38:09.239Z,99924.00
2018-06-18T15:40:14.885Z,99912.00
2018-06-18T15:42:22.420Z,99913.00
2018-06-18T15:44:27.325Z,99911.00
2018-06-18T15:46:31.880Z,99912.00
2018-06-18T15:48:36.551Z,99907.00
2018-06-18T15:50:41.510Z,99914.00
2018-06-18T15:52:46.519Z,99892.00
2018-06-18T15:54:51.436Z,99898.00
2018-06-18T15:56:55.954Z,99892.00
2018-06-18T15:59:01.389Z,99895.00
2018-06-18T16:01:06.450Z,99892.00
2018-06-18T16:03:11.166Z,99882.00
2018-06-18T16:05:16.365Z,99889.00
2018-06-18T16:07:20.938Z,99870.00
2018-06-18T16:09:25.907Z,99880.00
2018-06-18T16:11:30.449Z,99881.00
2018-06-18T16:13:35.557Z,99881.00
2018-06-18T16:15:40.047Z,99871.00
2018-06-18T16:17:44.888Z,99868.00
2018-06-18T16:19:50.022Z,99870.00
2018-06-18T16:21:54.813Z,99869.00
2018-06-18T16:23:59.368Z,99865.00
2018-06-18T16:26:04.944Z,99874.00
2018-06-18T16:28:09.552Z,99861.00
2018-06-18T16:30:14.258Z,99869.00
2018-06-18T16:32:19.276Z,99879.00
2018-06-18T16:34:24.890Z,99881.00
2018-06-18T16:36:29.354Z,99886.00
2018-06-18T16:38:34.528Z,99885.00
2018-06-18T16:40:39.533Z,99876.00
2018-06-18T16:42:44.706Z,99876.00
2018-06-18T16:44:49.696Z,99870.00
2018-06-18T16:46:54.304Z,99871.00
2018-06-18T16:48:58.763Z,99862.00
2018-06-18T16:51:03.217Z,99862.00
2018-06-18T16:53:07.956Z,99871.00
2018-06-18T16:55:12.507Z,99865.00
2018-06-18T16:57:16.963Z,99869.00
2018-06-18T16:59:21.522Z,99865.00
2018-06-18T17:01:25.978Z,99859.00
2018-06-18T17:03:30.411Z,99877.00
2018-06-18T17:05:34.874Z,99862.00
2018-06-18T17:07:39.360Z,99863.00
2018-06-18T17:09:43.903Z,99863.00
2018-06-18T17:11:48.339Z,99861.00
2018-06-18T17:13:53.172Z,99873.00
2018-06-18T17:15:58.043Z,99873.00
2018-06-18T17:18:02.583Z,99874.00
2018-06-18T17:20:08.695Z,99870.00
2018-06-18T17:22:13.280Z,99862.00
2018-06-18T17:24:17.784Z,99868.00
2018-06-18T17:26:22.245Z,99864.00
2018-06-18T17:28:28.447Z,99868.00
2018-06-18T17:30:33.223Z,99871.00
2018-06-18T17:32:37.755Z,99863.00
2018-06-18T17:34:42.598Z,99868.00
2018-06-18T17:36:47.705Z,99866.00
2018-06-18T17:38:52.751Z,99854.00
2018-06-18T17:40:57.224Z,99850.00
2018-06-18T17:43:03.197Z,99850.00
2018-06-18T17:45:07.581Z,99862.00
2018-06-18T17:47:12.920Z,99849.00
2018-06-18T17:49:18.127Z,99853.00
2018-06-18T17:51:23.488Z,99858.00
2018-06-18T17:53:27.958Z,99846.00
2018-06-18T17:55:32.742Z,99852.00
2018-06-18T17:57:37.811Z,99844.00
2018-06-18T17:59:42.440Z,99849.00
2018-06-18T18:01:48.162Z,99852.00
2018-06-18T18:03:52.715Z,99853.00
2018-06-18T18:05:57.879Z,99855.00
2018-06-18T18:08:02.870Z,99852.00
2018-06-18T18:10:08.360Z,99849.00
2018-06-18T18:12:13.179Z,99860.00
2018-06-18T18:14:18.355Z,99864.00
2018-06-18T18:16:23.509Z,99870.00
2018-06-18T18:18:27.972Z,99865.00
2018-06-18T18:20:34.920Z,99867.00
2018-06-18T18:22:39.764Z,99861.00
2018-06-18T18:24:44.872Z,99866.00
2018-06-18T18:26:50.035Z,99875.00
2018-06-18T18:28:54.962Z,99868.00
2018-06-18T18:30:59.967Z,99866.00
2018-06-18T18:33:04.856Z,99869.00
2018-06-18T18:35:09.367Z,99878.00
2018-06-18T18:37:14.395Z,99864.00
2018-06-18T18:39:19.422Z,99869.00
2018-06-18T18:41:24.276Z,99871.00
2018-06-18T18:43:29.504Z,99873.00
2018-06-18T18:45:34.231Z,99867.00
2018-06-18T18:47:39.318Z,99857.00
2018-06-18T18:49:44.675Z,99866.00
2018-06-18T18:51:50.172Z,99869.00
2018-06-18T18:53:57.041Z,99857.00
2018-06-18T18:56:18.694Z,99871.00
2018-06-18T18:59:35.942Z,99872.00
2018-06-18T19:01:41.824Z,99876.00
2018-06-18T19:03:49.440Z,99879.00
2018-06-18T19:05:55.210Z,99870.00
2018-06-18T19:08:00.183Z,99874.00
2018-06-18T19:10:14.161Z,99880.00
2018-06-18T19:12:18.710Z,99884.00
2018-06-18T19:14:24.016Z,99879.00
2018-06-18T19:16:29.003Z,99876.00
2018-06-18T19:18:35.071Z,99882.00
2018-06-18T19:20:45.614Z,99891.00
2018-06-18T19:22:50.240Z,99882.00
2018-06-18T19:24:54.994Z,99878.00
2018-06-18T19:26:59.651Z,99883.00
2018-06-18T19:29:06.470Z,99884.00
2018-06-18T19:31:22.473Z,99887.00
2018-06-18T19:34:33.668Z,99879.00
2018-06-18T19:36:43.087Z,99877.00
2018-06-18T19:38:52.151Z,99874.00
2018-06-18T19:40:57.166Z,99883.00
2018-06-18T19:43:01.635Z,99877.00
2018-06-18T19:45:09.838Z,99873.00
2018-06-18T19:48:01.426Z,99871.00
2018-06-18T19:50:06.719Z,99877.00
2018-06-18T19:52:11.576Z,99880.00
2018-06-18T19:54:21.391Z,99882.00
2018-06-18T19:56:25.918Z,99882.00
2018-06-18T19:58:30.990Z,99880.00
2018-06-18T20:00:44.302Z,99881.00
2018-06-18T20:02:49.515Z,99889.00
2018-06-18T20:04:54.374Z,99886.00
2018-06-18T20:06:59.189Z,99886.00
2018-06-18T20:09:04.166Z,99889.00
2018-06-18T20:11:09.419Z,99899.00
2018-06-18T20:13:14.153Z,99897.00
2018-06-18T20:15:19.731Z,99896.00
2018-06-18T20:17:24.750Z,99900.00
2018-06-18T20:19:29.614Z,99900.00
2018-06-18T20:21:34.807Z,99904.00
2018-06-18T20:23:39.682Z,99907.00
2018-06-18T20:25:52.811Z,99917.00
2018-06-18T20:27:57.672Z,99913.00
2018-06-18T20:30:03.859Z,99919.00
2018-06-18T20:32:09.544Z,99921.00
2018-06-18T20:34:14.867Z,99914.00
2018-06-18T20:36:21.746Z,99916.00
2018-06-18T20:38:26.467Z,99920.00
2018-06-18T20:40:31.459Z,99936.00
2018-06-18T20:42:35.922Z,99930.00
2018-06-18T20:44:40.707Z,99928.00
2018-06-18T20:46:45.534Z,99930.00
2018-06-18T20:48:50.332Z,99925.00
2018-06-18T20:50:55.247Z,99930.00
2018-06-18T20:52:59.854Z,99925.00
2018-06-18T20:55:06.743Z,99931.00
2018-06-18T20:57:12.227Z,99936.00
2018-06-18T20:59:17.722Z,99937.00
2018-06-18T21:01:22.375Z,99933.00
2018-06-18T21:03:27.211Z,99942.00
2018-06-18T21:05:31.694Z,99939.00
2018-06-18T21:07:37.325Z,99941.00
2018-06-18T21:09:42.135Z,99945.00
2018-06-18T21:11:47.193Z,99939.00
2018-06-18T21:13:51.969Z,99942.00
2018-06-18T21:15:56.465Z,99939.00
2018-06-18T21:18:01.022Z,99939.00
2018-06-18T21:20:05.896Z,99953.00
2018-06-18T21:22:12.775Z,99949.00
2018-06-18T21:24:18.035Z,99944.00
2018-06-18T21:26:23.506Z,99950.00
2018-06-18T21:28:28.007Z,99965.00
2018-06-18T21:30:32.531Z,99960.00
2018-06-18T21:32:37.047Z,99963.00
2018-06-18T21:34:41.659Z,99962.00
2018-06-18T21:36:46.155Z,99968.00
2018-06-18T21:38:50.854Z,99965.00
2018-06-18T21:40:55.295Z,99967.00
2018-06-18T21:43:01.566Z,99972.00
2018-06-18T21:45:19.364Z,99979.00
2018-06-18T21:47:23.804Z,99969.00
2018-06-18T21:49:28.303Z,99976.00
2018-06-18T21:51:32.771Z,99977.00
2018-06-18T21:53:38.158Z,99985.00
2018-06-18T21:55:42.612Z,99975.00
2018-06-18T21:57:47.229Z,99979.00
2018-06-18T21:59:51.662Z,99977.00
2018-06-18T22:01:56.137Z,99980.00
2018-06-18T22:04:00.643Z,99982.00
2018-06-18T22:06:05.768Z,99978.00
2018-06-18T22:08:14.243Z,99978.00
2018-06-18T22:10:18.777Z,99974.00
2018-06-18T22:12:23.187Z,99971.00
2018-06-18T22:14:27.658Z,99975.00
2018-06-18T22:16:32.150Z,99979.00
2018-06-18T22:18:36.635Z,99969.00
2018-06-18T22:20:46.143Z,99976.00
2018-06-18T22:22:54.187Z,99983.00
2018-06-18T22:24:59.535Z,99980.00
2018-06-18T22:27:03.958Z,99977.00
2018-06-18T22:29:08.655Z,99980.00
2018-06-18T22:31:13.213Z,99976.00
2018-06-18T22:33:17.738Z,99975.00
2018-06-18T22:35:22.196Z,99971.00
2018-06-18T22:37:26.751Z,99982.00
2018-06-18T22:39:31.391Z,99968.00
2018-06-18T22:41:35.932Z,99967.00
2018-06-18T22:43:40.411Z,99974.00
2018-06-18T22:45:45.424Z,99976.00
2018-06-18T22:47:49.858Z,99966.00
2018-06-18T22:49:54.355Z,99973.00
2018-06-18T22:51:58.815Z,99973.00
2018-06-18T22:54:03.365Z,99977.00
2018-06-18T22:56:07.909Z,99981.00
2018-06-18T22:58:12.490Z,99981.00
2018-06-18T23:00:16.622Z,99972.00
2018-06-18T23:02:25.355Z,99976.00
2018-06-18T23:04:29.880Z,99980.00
2018-06-18T23:06:34.402Z,99970.00
2018-06-18T23:08:38.919Z,99968.00
2018-06-18T23:10:43.396Z,99973.00
2018-06-18T23:12:47.803Z,99983.00
2018-06-18T23:14:52.254Z,99974.00
2018-06-18T23:17:04.525Z,99987.00
2018-06-18T23:19:09.158Z,99971.00
2018-06-18T23:21:13.796Z,99977.00
2018-06-18T23:23:18.392Z,99977.00
2018-06-18T23:25:22.851Z,99985.00
2018-06-18T23:27:27.347Z,99982.00
2018-06-18T23:29:31.839Z,99985.00
2018-06-18T23:31:36.271Z,99983.00
2018-06-18T23:33:40.815Z,99987.00
2018-06-18T23:35:45.274Z,99989.00
2018-06-18T23:37:49.711Z,99990.00
2018-06-18T23:39:54.275Z,99989.00
2018-06-18T23:41:59.736Z,99992.00
2018-06-18T23:44:04.288Z,99988.00
2018-06-18T23:46:08.751Z,99988.00
2018-06-18T23:48:13.281Z,99985.00
2018-06-18T23:50:17.767Z,99990.00
2018-06-18T23:52:21.903Z,99990.00
2018-06-18T23:54:26.411Z,99996.00
2018-06-18T23:56:31.762Z,99986.00
2018-06-18T23:58:36.214Z,99986.00
